Time;durP1;ratioP1;P1;durP2;ratioP2;P2;SDS_P1;SDS_P2;PMS_P1;PMS_P2;Temp;Humidity;BMP_temperature;BMP_pressure;BME280_temperature;BME280_humidity;BME280_pressure;Samples;Min_cycle;Max_cycle;Signal;HPM_P1;HPM_P2
2023/07/04 00:01:25;;;;;;;5.28;3.35;;;;;;;25.97;53.29;99477.59;5054140;28;20033;-81
2023/07/04 00:03:54;;;;;;;5.85;3.95;;;;;;;25.93;53.48;99477.00;5054318;28;20028;-80
2023/07/04 00:06:22;;;;;;;5.60;3.58;;;;;;;25.92;53.40;99480.66;5054184;28;20025;-80
2023/07/04 00:08:49;;;;;;;4.88;3.22;;;;;;;25.92;53.38;99469.97;5054038;28;20032;-81
2023/07/04 00:11:15;;;;;;;4.65;3.22;;;;;;;25.91;53.22;99468.25;5054221;28;20024;-81
2023/07/04 00:13:41;;;;;;;4.70;3.00;;;;;;;25.92;53.45;99475.31;5053370;28;20068;-81
2023/07/04 00:16:12;;;;;;;4.72;3.15;;;;;;;25.93;53.03;99471.66;5054080;28;20104;-81
2023/07/04 00:18:38;;;;;;;6.13;3.42;;;;;;;25.92;53.17;99475.31;5054000;28;20056;-81
2023/07/04 00:21:07;;;;;;;5.65;3.75;;;;;;;25.94;53.28;99473.34;5054022;28;20438;-82
2023/07/04 00:23:34;;;;;;;4.88;3.10;;;;;;;25.92;53.26;99469.09;5053795;28;20036;-80
2023/07/04 00:26:06;;;;;;;4.50;2.78;;;;;;;25.91;53.16;99467.41;5053875;28;20029;-80
2023/07/04 00:28:33;;;;;;;4.50;2.80;;;;;;;25.91;53.31;99459.38;5053625;28;20071;-80
2023/07/04 00:31:02;;;;;;;6.45;3.50;;;;;;;25.91;52.85;99470.06;5051867;28;20024;-80
2023/07/04 00:33:28;;;;;;;4.32;2.60;;;;;;;25.93;53.30;99465.44;5044394;28;20507;-78
2023/07/04 00:36:03;;;;;;;5.68;3.40;;;;;;;25.90;52.97;99460.38;5033887;28;20025;-80
2023/07/04 00:38:32;;;;;;;4.47;2.97;;;;;;;25.88;53.30;99460.47;5033924;28;20034;-81
2023/07/04 00:40:58;;;;;;;4.60;3.25;;;;;;;25.86;53.08;99462.44;5033660;28;20026;-80
2023/07/04 00:43:24;;;;;;;4.88;2.92;;;;;;;25.86;52.94;99465.13;5033367;28;20029;-79
2023/07/04 00:45:56;;;;;;;5.10;3.38;;;;;;;25.90;52.85;99466.53;5033801;28;20036;-81
2023/07/04 00:48:22;;;;;;;4.30;3.10;;;;;;;25.89;52.94;99451.47;5033706;28;20037;-79
2023/07/04 00:50:50;;;;;;;6.55;3.20;;;;;;;25.89;52.91;99459.50;5049691;28;20123;-81
2023/07/04 00:53:16;;;;;;;4.47;3.08;;;;;;;25.91;52.84;99462.88;5053003;28;20033;-80
2023/07/04 00:55:49;;;;;;;4.82;3.38;;;;;;;25.93;52.73;99465.44;5053365;28;20029;-80
2023/07/04 00:58:15;;;;;;;5.10;3.28;;;;;;;25.94;52.76;99470.66;5052736;28;20037;-79
2023/07/04 01:00:41;;;;;;;5.28;3.28;;;;;;;25.94;52.84;99462.66;5053196;28;20060;-79
2023/07/04 01:03:21;;;;;;;5.07;3.15;;;;;;;25.94;52.89;99456.44;5052988;28;20134;-82
2023/07/04 01:06:04;;;;;;;5.82;4.10;;;;;;;25.95;52.71;99459.00;5053112;28;20465;-80
2023/07/04 01:08:34;;;;;;;5.50;3.65;;;;;;;25.94;52.51;99459.97;5051624;28;20033;-82
2023/07/04 01:11:05;;;;;;;4.65;3.00;;;;;;;25.91;52.48;99457.53;5053087;28;20496;-80
2023/07/04 01:13:34;;;;;;;4.70;3.40;;;;;;;25.90;52.67;99455.03;5052715;28;20068;-80
2023/07/04 01:16:05;;;;;;;5.20;3.10;;;;;;;25.92;52.54;99453.06;5051588;28;20017;-80
2023/07/04 01:18:31;;;;;;;4.97;3.38;;;;;;;25.91;52.78;99457.53;5051590;28;20029;-80
2023/07/04 01:20:58;;;;;;;4.95;3.15;;;;;;;25.88;52.61;99457.81;5052740;28;20670;-81
2023/07/04 01:23:42;;;;;;;6.60;3.65;;;;;;;25.90;52.71;99461.19;5051600;28;20385;-80
2023/07/04 01:26:37;;;;;;;5.20;3.58;;;;;;;25.87;52.55;99456.13;5051954;28;20021;-81
2023/07/04 01:29:05;;;;;;;5.70;3.85;;;;;;;25.87;52.61;99456.13;5043675;28;20062;-80
2023/07/04 01:31:32;;;;;;;5.47;3.50;;;;;;;25.81;52.80;99457.47;5041494;28;20102;-79
2023/07/04 01:33:58;;;;;;;5.35;3.95;;;;;;;25.80;52.91;99454.94;5032770;28;20053;-79
2023/07/04 01:36:30;;;;;;;5.40;3.83;;;;;;;25.81;52.61;99456.63;5032565;28;20018;-79
2023/07/04 01:38:55;;;;;;;5.10;3.53;;;;;;;25.80;52.85;99455.75;5037996;28;20496;-81
2023/07/04 01:41:24;;;;;;;6.30;3.85;;;;;;;25.77;53.06;99460.50;5052132;28;20021;-81
2023/07/04 01:44:13;;;;;;;4.28;3.30;;;;;;;25.76;52.70;99458.81;5052476;28;20036;-81
2023/07/04 01:46:39;;;;;;;5.32;3.42;;;;;;;25.70;52.98;99455.66;5051644;28;20037;-82
2023/07/04 01:49:05;;;;;;;5.10;3.55;;;;;;;25.70;52.57;99461.00;5052455;28;20112;-83
2023/07/04 01:51:40;;;;;;;5.70;3.70;;;;;;;25.71;53.02;99452.00;5052398;28;20017;-81
2023/07/04 01:54:07;;;;;;;6.35;4.13;;;;;;;25.69;52.65;99453.13;5052382;28;20132;-83
2023/07/04 01:56:36;;;;;;;5.35;3.53;;;;;;;25.68;53.04;99449.59;5052216;28;20025;-80
2023/07/04 01:59:01;;;;;;;4.90;3.63;;;;;;;25.67;52.91;99449.72;5051830;28;20126;-78
2023/07/04 02:01:27;;;;;;;5.75;3.88;;;;;;;25.63;53.07;99449.13;5052700;28;20108;-80
2023/07/04 02:03:52;;;;;;;5.97;3.33;;;;;;;25.60;53.11;99444.88;5052276;28;20043;-80
2023/07/04 02:06:18;;;;;;;5.20;3.55;;;;;;;25.59;53.05;99447.69;5051080;28;20495;-80
2023/07/04 02:08:43;;;;;;;5.32;3.65;;;;;;;25.60;52.87;99449.38;5052294;28;20032;-81
2023/07/04 02:11:09;;;;;;;5.90;3.90;;;;;;;25.60;53.02;99450.22;5045389;28;20036;-82
2023/07/04 02:13:34;;;;;;;5.68;3.30;;;;;;;25.56;52.92;99447.94;5032317;28;20021;-80
2023/07/04 02:16:00;;;;;;;4.90;3.47;;;;;;;25.55;53.17;99440.88;5032471;28;20375;-80
2023/07/04 02:18:26;;;;;;;5.78;3.25;;;;;;;25.54;53.13;99439.19;5032402;28;20079;-81
2023/07/04 02:20:51;;;;;;;5.90;4.10;;;;;;;25.52;53.00;99441.09;5032536;28;20033;-80
2023/07/04 02:23:17;;;;;;;6.03;3.58;;;;;;;25.47;53.31;99439.66;5032134;28;20032;-82
2023/07/04 02:25:43;;;;;;;4.55;3.10;;;;;;;25.48;53.46;99446.69;5032088;28;20021;-80
2023/07/04 02:28:09;;;;;;;5.38;3.70;;;;;;;25.47;53.12;99445.00;5032546;28;20104;-81
2023/07/04 02:30:35;;;;;;;5.70;3.80;;;;;;;25.50;53.10;99437.69;5032294;28;20021;-83
2023/07/04 02:33:01;;;;;;;5.40;3.63;;;;;;;25.50;52.93;99440.34;5032628;28;20032;-82
2023/07/04 02:35:28;;;;;;;5.53;3.75;;;;;;;25.51;52.82;99444.75;5033353;28;20028;-82
2023/07/04 02:37:53;;;;;;;6.35;3.55;;;;;;;25.47;53.29;99441.47;5052174;28;20017;-82
2023/07/04 02:40:19;;;;;;;5.30;3.65;;;;;;;25.47;52.93;99445.00;5050262;28;20029;-81
2023/07/04 02:42:44;;;;;;;4.95;3.53;;;;;;;25.44;53.14;99439.03;5051983;28;20457;-81
2023/07/04 02:45:10;;;;;;;5.72;3.78;;;;;;;25.44;53.39;99445.25;5052394;28;20021;-82
2023/07/04 02:47:35;;;;;;;5.10;3.42;;;;;;;25.44;53.39;99439.91;5052150;28;20481;-81
2023/07/04 02:50:01;;;;;;;5.20;3.50;;;;;;;25.41;53.47;99439.28;5051807;28;20048;-82
2023/07/04 02:52:26;;;;;;;4.68;3.28;;;;;;;25.37;53.16;99436.00;5051877;28;20021;-81
2023/07/04 02:54:52;;;;;;;6.20;3.97;;;;;;;25.32;53.42;99436.38;5051232;28;20098;-80
2023/07/04 02:57:18;;;;;;;5.07;3.35;;;;;;;25.30;53.55;99437.47;5050471;28;20021;-82
2023/07/04 02:59:44;;;;;;;5.07;3.60;;;;;;;25.28;53.49;99439.44;5055213;28;20383;-80
2023/07/04 03:02:09;;;;;;;5.80;3.80;;;;;;;25.29;53.53;99433.13;5055535;28;20102;-81
2023/07/04 03:04:36;;;;;;;5.78;3.70;;;;;;;25.26;53.52;99430.69;5055782;28;20029;-82
2023/07/04 03:07:02;;;;;;;6.57;3.95;;;;;;;25.25;53.74;99442.34;5055495;28;20040;-79
2023/07/04 03:09:27;;;;;;;5.78;3.83;;;;;;;25.23;53.80;99439.78;5054920;28;20021;-79
2023/07/04 03:11:54;;;;;;;5.32;3.75;;;;;;;25.24;53.53;99443.31;5055568;28;20025;-80
2023/07/04 03:14:20;;;;;;;5.25;3.40;;;;;;;25.23;53.71;99446.97;5055240;28;20156;-80
2023/07/04 03:16:45;;;;;;;5.50;3.38;;;;;;;25.22;53.73;99450.59;5055393;28;20501;-80
2023/07/04 03:19:11;;;;;;;5.05;3.42;;;;;;;25.20;53.71;99443.56;5055071;28;20059;-79
2023/07/04 03:21:36;;;;;;;5.55;3.85;;;;;;;25.19;53.89;99438.34;5055082;28;20027;-82
2023/07/04 03:24:01;;;;;;;5.95;3.85;;;;;;;25.16;54.03;99447.44;5054782;28;20029;-82
2023/07/04 03:26:27;;;;;;;5.55;3.67;;;;;;;25.16;53.73;99442.09;5055026;28;20017;-81
2023/07/04 03:28:52;;;;;;;5.07;3.47;;;;;;;25.15;53.85;99450.22;5053644;28;20082;-81
2023/07/04 03:31:18;;;;;;;5.30;3.47;;;;;;;25.16;54.03;99444.78;5054993;28;20021;-81
2023/07/04 03:33:44;;;;;;;5.78;3.97;;;;;;;25.14;53.81;99448.53;5055236;28;20041;-82
2023/07/04 03:36:10;;;;;;;5.88;3.60;;;;;;;25.14;54.25;99446.69;5055292;28;20028;-81
2023/07/04 03:38:35;;;;;;;5.35;3.58;;;;;;;25.13;54.08;99442.34;5054688;28;20025;-82
2023/07/04 03:41:00;;;;;;;5.63;3.72;;;;;;;25.14;53.92;99448.53;5054873;28;20033;-82
2023/07/04 03:43:26;;;;;;;7.07;3.67;;;;;;;25.11;54.03;99454.97;5055058;28;20017;-81
2023/07/04 03:45:52;;;;;;;5.20;3.55;;;;;;;25.10;53.93;99447.94;5055094;28;20013;-82
2023/07/04 03:48:18;;;;;;;5.70;3.53;;;;;;;25.10;54.16;99452.41;5055004;28;20032;-84
2023/07/04 03:50:44;;;;;;;4.88;3.58;;;;;;;25.08;53.99;99449.84;5042537;28;20033;-82
2023/07/04 03:53:09;;;;;;;4.53;3.05;;;;;;;25.08;53.88;99452.53;5034521;28;20018;-83
2023/07/04 03:55:35;;;;;;;5.55;3.67;;;;;;;25.08;54.07;99455.19;5034851;28;20029;-82
2023/07/04 03:58:02;;;;;;;6.40;3.53;;;;;;;25.08;54.34;99452.53;5054001;28;20056;-84
2023/07/04 04:00:27;;;;;;;4.93;3.15;;;;;;;25.06;53.97;99449.13;5054565;28;20535;-83
2023/07/04 04:02:52;;;;;;;5.20;3.67;;;;;;;25.07;54.34;99450.81;5054837;28;20037;-84
2023/07/04 04:05:19;;;;;;;5.55;3.83;;;;;;;25.06;54.19;99452.66;5054962;28;20021;-83
2023/07/04 04:07:45;;;;;;;6.32;3.45;;;;;;;25.06;54.09;99451.81;5054601;28;20051;-83
2023/07/04 04:10:10;;;;;;;5.10;3.55;;;;;;;25.05;54.03;99445.59;5053721;28;20432;-83
2023/07/04 04:12:36;;;;;;;5.30;3.78;;;;;;;25.06;54.09;99446.47;5052926;28;20032;-83
2023/07/04 04:15:02;;;;;;;5.55;3.65;;;;;;;25.06;53.94;99457.16;5054291;28;20056;-82
2023/07/04 04:17:28;;;;;;;4.68;3.20;;;;;;;25.04;54.10;99449.25;5054176;28;20489;-81
2023/07/04 04:19:53;;;;;;;5.05;3.63;;;;;;;25.04;54.17;99443.06;5053665;28;20036;-79
2023/07/04 04:22:19;;;;;;;6.30;3.60;;;;;;;25.04;53.95;99456.44;5053878;28;20112;-81
2023/07/04 04:24:46;;;;;;;4.80;3.20;;;;;;;25.02;54.27;99453.00;5053807;28;20043;-79
2023/07/04 04:27:13;;;;;;;5.63;3.38;;;;;;;25.00;54.21;99447.81;5053658;28;20032;-81
2023/07/04 04:29:38;;;;;;;5.72;3.78;;;;;;;25.02;54.15;99439.66;5053763;28;20051;-80
2023/07/04 04:32:04;;;;;;;5.65;3.13;;;;;;;25.00;54.03;99431.78;5045700;28;20437;-80
2023/07/04 04:34:29;;;;;;;5.60;3.60;;;;;;;25.01;54.27;99432.63;5044247;28;20053;-82
2023/07/04 04:36:55;;;;;;;5.53;3.78;;;;;;;25.00;54.30;99425.59;5049027;28;20033;-79
2023/07/04 04:39:21;;;;;;;4.32;3.17;;;;;;;25.02;53.74;99427.19;5039818;28;20033;-80
2023/07/04 04:41:46;;;;;;;5.20;3.30;;;;;;;25.02;54.09;99434.31;5053625;28;20035;-78
2023/07/04 04:44:12;;;;;;;5.10;3.53;;;;;;;25.00;53.98;99429.13;5053482;28;20450;-79
2023/07/04 04:46:40;;;;;;;5.00;3.50;;;;;;;24.98;54.14;99417.69;5053682;28;20053;-81
2023/07/04 04:49:08;;;;;;;6.28;3.45;;;;;;;24.97;54.19;99441.84;5053347;28;20028;-80
2023/07/04 04:51:34;;;;;;;5.43;3.60;;;;;;;24.99;54.37;99435.41;5053502;28;20440;-81
2023/07/04 04:54:01;;;;;;;4.68;3.00;;;;;;;25.01;54.06;99427.28;5053451;28;20426;-80
2023/07/04 04:56:26;;;;;;;5.95;3.90;;;;;;;25.02;53.93;99439.66;5053236;28;20100;-80
2023/07/04 04:58:52;;;;;;;5.45;3.47;;;;;;;25.00;54.42;99433.59;5053045;28;20068;-81
2023/07/04 05:01:22;;;;;;;5.43;3.78;;;;;;;25.03;54.34;99441.38;5052945;28;20033;-79
2023/07/04 05:03:55;;;;;;;5.60;3.65;;;;;;;25.00;53.86;99449.63;5042459;28;20033;-78
2023/07/04 05:06:23;;;;;;;5.07;3.35;;;;;;;25.02;54.10;99450.34;5035979;28;20466;-81
2023/07/04 05:08:49;;;;;;;4.72;3.30;;;;;;;24.99;54.19;99434.56;5034187;28;20104;-80
2023/07/04 05:11:16;;;;;;;6.07;3.50;;;;;;;25.01;54.04;99441.50;5052761;28;20735;-75
2023/07/04 05:13:42;;;;;;;5.82;3.20;;;;;;;25.02;54.34;99445.00;5052573;28;20032;-80
2023/07/04 05:16:09;;;;;;;7.07;3.58;;;;;;;25.10;53.92;99450.59;5052754;28;20060;-79
2023/07/04 05:18:36;;;;;;;5.68;3.55;;;;;;;25.15;53.70;99451.09;5052618;28;20059;-77
2023/07/04 05:21:04;;;;;;;5.80;3.38;;;;;;;25.17;53.87;99449.13;5051592;28;20024;-79
2023/07/04 05:23:31;;;;;;;6.05;4.10;;;;;;;25.20;54.06;99454.25;5052668;28;20024;-77
2023/07/04 05:25:59;;;;;;;6.32;4.05;;;;;;;25.24;53.96;99454.00;5052647;28;20017;-76
2023/07/04 05:28:25;;;;;;;6.13;3.80;;;;;;;25.22;53.99;99455.94;5051231;28;20025;-76
2023/07/04 05:30:57;;;;;;;6.07;4.13;;;;;;;25.27;53.69;99454.59;5052412;28;20021;-77
2023/07/04 05:33:22;;;;;;;7.30;4.72;;;;;;;25.25;53.95;99456.53;5052250;28;20021;-78
2023/07/04 05:35:47;;;;;;;6.57;3.85;;;;;;;25.27;53.98;99448.41;5052798;28;20488;-80
2023/07/04 05:38:13;;;;;;;7.25;4.10;;;;;;;25.28;53.98;99460.78;5051058;28;20385;-79
2023/07/04 05:40:40;;;;;;;5.82;4.53;;;;;;;25.29;53.91;99451.81;5052408;28;20033;-80
2023/07/04 05:43:05;;;;;;;8.05;5.07;;;;;;;25.32;53.78;99456.88;5052408;28;20033;-79
2023/07/04 05:45:30;;;;;;;7.13;4.35;;;;;;;25.35;53.45;99456.66;5052368;28;20032;-78
2023/07/04 05:47:56;;;;;;;7.40;4.20;;;;;;;25.35;53.85;99451.31;5052217;28;20481;-77
2023/07/04 05:50:22;;;;;;;5.88;4.07;;;;;;;25.32;53.66;99456.88;5052036;28;20056;-79
2023/07/04 05:52:47;;;;;;;7.55;4.28;;;;;;;25.35;53.64;99451.31;5052236;28;20036;-75
2023/07/04 05:55:13;;;;;;;5.80;4.40;;;;;;;25.37;53.37;99453.88;5052307;28;20036;-76
2023/07/04 05:57:38;;;;;;;6.75;4.47;;;;;;;25.36;53.78;99446.84;5050175;28;20047;-80
2023/07/04 06:00:05;;;;;;;7.70;4.50;;;;;;;25.35;53.85;99462.00;5051116;28;20047;-76
2023/07/04 06:02:31;;;;;;;8.20;4.90;;;;;;;25.32;53.96;99463.09;5043981;28;20078;-78
2023/07/04 06:04:57;;;;;;;7.45;5.07;;;;;;;25.36;53.92;99466.38;5047443;28;20427;-77
2023/07/04 06:07:28;;;;;;;8.07;4.97;;;;;;;25.37;53.89;99467.22;5053203;28;20028;-81
2023/07/04 06:09:53;;;;;;;8.05;5.45;;;;;;;25.37;53.73;99460.03;5052692;28;20029;-80
2023/07/04 06:12:19;;;;;;;6.97;5.35;;;;;;;25.39;53.63;99458.13;5052906;28;20022;-78
2023/07/04 06:14:44;;;;;;;8.18;5.32;;;;;;;25.40;53.79;99459.81;5048194;28;20498;-78
2023/07/04 06:17:09;;;;;;;6.57;4.88;;;;;;;25.39;53.93;99463.47;5048688;28;20021;-78
2023/07/04 06:19:35;;;;;;;7.10;4.85;;;;;;;25.37;53.84;99460.03;5052989;28;20036;-76
2023/07/04 06:22:05;;;;;;;8.23;5.15;;;;;;;25.40;54.07;99464.28;5051854;28;20456;-78
2023/07/04 06:24:30;;;;;;;9.18;4.90;;;;;;;25.36;53.94;99457.53;5052803;28;20536;-77
2023/07/04 06:26:56;;;;;;;7.40;5.15;;;;;;;25.38;53.95;99461.78;5052506;28;20029;-79
2023/07/04 06:29:22;;;;;;;8.27;4.78;;;;;;;25.35;54.10;99462.00;5053210;28;20036;-79
2023/07/04 06:31:49;;;;;;;7.57;4.57;;;;;;;25.38;54.05;99461.78;5054463;28;20021;-82
2023/07/04 06:34:14;;;;;;;8.25;5.18;;;;;;;25.38;54.11;99467.13;5056243;28;20060;-81
2023/07/04 06:36:40;;;;;;;10.13;5.13;;;;;;;25.40;53.96;99473.16;5056931;28;20431;-79
2023/07/04 06:39:06;;;;;;;7.32;4.82;;;;;;;25.41;53.97;99472.19;5056626;28;20025;-78
2023/07/04 06:41:31;;;;;;;9.15;4.95;;;;;;;25.40;54.13;99467.81;5055477;28;20033;-76
2023/07/04 06:43:57;;;;;;;6.38;4.15;;;;;;;25.42;54.10;99475.72;5055211;28;20074;-78
2023/07/04 06:46:22;;;;;;;10.00;4.88;;;;;;;25.41;54.12;99469.53;5055319;28;20029;-78
2023/07/04 06:48:51;;;;;;;7.80;4.70;;;;;;;25.43;53.73;99464.91;5057338;28;20551;-82
2023/07/04 06:51:18;;;;;;;8.80;4.68;;;;;;;25.42;53.89;99478.41;5056630;28;20025;-81
2023/07/04 06:53:44;;;;;;;9.45;5.57;;;;;;;25.43;53.85;99475.56;5056543;28;20021;-78
2023/07/04 06:56:19;;;;;;;9.27;4.80;;;;;;;25.41;54.17;99477.53;5056417;28;20063;-79
2023/07/04 06:58:50;;;;;;;9.68;4.80;;;;;;;25.43;53.86;99480.91;5055836;28;20164;-80
2023/07/04 07:01:16;;;;;;;8.15;5.35;;;;;;;25.42;53.68;99479.22;5056216;28;20706;-80
2023/07/04 07:03:42;;;;;;;8.07;4.60;;;;;;;25.43;54.10;99478.25;5056693;28;20131;-81
2023/07/04 07:06:09;;;;;;;7.70;5.40;;;;;;;25.43;53.94;99480.91;5055365;28;20087;-80
2023/07/04 07:08:36;;;;;;;9.13;5.13;;;;;;;25.42;54.05;99471.22;5055758;28;20021;-83
2023/07/04 07:11:04;;;;;;;8.48;4.93;;;;;;;25.43;53.70;99472.91;5056892;28;20061;-79
2023/07/04 07:13:30;;;;;;;10.73;4.95;;;;;;;25.47;53.69;99486.91;5055836;28;20021;-82
2023/07/04 07:16:09;;;;;;;9.32;4.80;;;;;;;25.45;53.72;99479.00;5054927;28;20108;-81
2023/07/04 07:18:36;;;;;;;9.23;5.00;;;;;;;25.46;53.74;99480.69;5055340;28;20176;-80
2023/07/04 07:21:03;;;;;;;7.40;4.65;;;;;;;25.47;53.96;99471.69;5055230;28;20447;-81
2023/07/04 07:23:30;;;;;;;7.50;5.03;;;;;;;25.47;53.96;99470.88;5055269;28;20113;-81
2023/07/04 07:25:57;;;;;;;8.40;5.07;;;;;;;25.48;53.71;99469.88;5055264;28;20029;-83
2023/07/04 07:28:26;;;;;;;7.68;5.50;;;;;;;25.49;53.63;99474.25;5054616;28;20481;-80
2023/07/04 07:31:02;;;;;;;7.50;5.15;;;;;;;25.48;53.68;99473.41;5055242;28;20025;-81
2023/07/04 07:33:30;;;;;;;7.53;4.90;;;;;;;25.49;53.65;99479.59;5054116;28;20435;-80
2023/07/04 07:35:56;;;;;;;7.85;4.75;;;;;;;25.51;53.58;99482.16;5055316;28;20492;-82
2023/07/04 07:38:21;;;;;;;6.03;4.68;;;;;;;25.52;53.67;99483.84;5055183;28;20120;-80
2023/07/04 07:40:51;;;;;;;7.15;4.57;;;;;;;25.54;53.39;99484.59;5054986;28;20033;-80
2023/07/04 07:43:17;;;;;;;9.50;4.70;;;;;;;25.54;53.46;99487.25;5053993;28;20036;-82
2023/07/04 07:45:43;;;;;;;8.85;4.88;;;;;;;25.55;53.53;99486.28;5055180;28;20480;-81
2023/07/04 07:48:08;;;;;;;7.72;5.15;;;;;;;25.57;53.52;99492.38;5054679;28;20033;-75
2023/07/04 07:50:34;;;;;;;7.90;5.03;;;;;;;25.55;53.77;99494.31;5054657;28;20036;-75
2023/07/04 07:52:59;;;;;;;8.88;4.25;;;;;;;25.54;53.78;99489.94;5054034;28;20135;-76
2023/07/04 07:55:25;;;;;;;6.53;4.40;;;;;;;25.57;53.31;99484.38;5054549;28;20413;-76
2023/07/04 07:57:50;;;;;;;6.85;4.32;;;;;;;25.57;53.39;99473.69;5053878;28;20049;-77
2023/07/04 08:00:16;;;;;;;7.32;4.70;;;;;;;25.56;53.54;99483.50;5054110;28;20044;-75
2023/07/04 08:02:41;;;;;;;7.85;4.72;;;;;;;25.59;53.28;99485.09;5054313;28;20439;-75
2023/07/04 08:05:07;;;;;;;6.55;4.40;;;;;;;25.60;53.35;99481.44;5054332;28;20471;-75
2023/07/04 08:07:32;;;;;;;7.47;4.55;;;;;;;25.59;53.49;99487.75;5053929;28;20447;-74
2023/07/04 08:09:59;;;;;;;6.32;4.47;;;;;;;25.60;53.30;99487.63;5054018;28;20385;-75
2023/07/04 08:12:24;;;;;;;8.75;4.22;;;;;;;25.61;53.37;99485.78;5053715;28;20074;-74
2023/07/04 08:14:50;;;;;;;7.32;4.65;;;;;;;25.62;53.17;99484.84;5054088;28;20384;-74
2023/07/04 08:17:15;;;;;;;7.80;4.38;;;;;;;25.64;53.06;99488.22;5054026;28;20108;-75
2023/07/04 08:19:41;;;;;;;5.57;3.97;;;;;;;25.64;53.22;99493.56;5053835;28;20492;-74
2023/07/04 08:22:06;;;;;;;7.10;4.40;;;;;;;25.65;53.30;99487.25;5053805;28;20029;-74
2023/07/04 08:24:32;;;;;;;6.95;4.35;;;;;;;25.66;52.85;99486.28;5053794;28;20405;-77
2023/07/04 08:26:58;;;;;;;6.43;4.78;;;;;;;25.67;53.31;99485.28;5053252;28;20055;-78
2023/07/04 08:29:24;;;;;;;6.10;4.10;;;;;;;25.67;53.18;99482.63;5053981;28;20054;-74
2023/07/04 08:31:50;;;;;;;7.43;4.22;;;;;;;25.68;53.24;99484.34;5053671;28;20029;-77
2023/07/04 08:34:15;;;;;;;7.35;4.68;;;;;;;25.66;53.18;99480.94;5053778;28;20040;-75
2023/07/04 08:36:41;;;;;;;7.32;4.20;;;;;;;25.68;53.04;99483.50;5053614;28;20473;-76
2023/07/04 08:39:09;;;;;;;6.85;4.65;;;;;;;25.69;53.14;99472.69;5053296;28;20033;-76
2023/07/04 08:41:45;;;;;;;6.88;4.47;;;;;;;25.69;52.91;99475.34;5053160;28;20061;-74
2023/07/04 08:44:13;;;;;;;6.70;4.60;;;;;;;25.69;52.98;99474.50;5053654;28;20053;-74
2023/07/04 08:46:42;;;;;;;7.20;4.55;;;;;;;25.68;53.12;99473.66;5053542;28;20421;-75
2023/07/04 08:49:21;;;;;;;5.55;4.13;;;;;;;25.70;53.25;99474.38;5053381;28;20024;-75
2023/07/04 08:51:53;;;;;;;5.45;3.80;;;;;;;25.72;52.82;99464.41;5053338;28;20036;-75
2023/07/04 08:54:20;;;;;;;5.57;3.80;;;;;;;25.73;53.28;99459.91;5053032;28;20477;-74
2023/07/04 08:56:47;;;;;;;5.80;4.07;;;;;;;25.73;53.10;99450.06;5052961;28;20029;-74
2023/07/04 08:59:24;;;;;;;5.72;3.85;;;;;;;25.77;53.00;99450.69;5052799;28;20493;-74
2023/07/04 09:01:59;;;;;;;6.53;4.32;;;;;;;25.77;53.05;99449.81;5052971;28;20028;-74
2023/07/04 09:04:55;;;;;;;6.18;3.90;;;;;;;25.78;53.19;99451.50;5053270;28;20040;-74
2023/07/04 09:07:39;;;;;;;6.28;4.00;;;;;;;25.81;52.96;99453.94;5014250;28;20152;-75
2023/07/04 09:10:33;;;;;;;7.07;4.70;;;;;;;25.84;52.68;99453.69;5030509;28;20521;-75
2023/07/04 09:13:02;;;;;;;7.03;4.40;;;;;;;25.84;52.88;99443.84;5030645;28;20044;-75
2023/07/04 09:15:42;;;;;;;5.75;3.90;;;;;;;25.87;52.61;99445.44;5014301;28;20021;-75
2023/07/04 09:18:25;;;;;;;7.43;4.50;;;;;;;25.88;52.63;99447.13;5030747;28;20047;-74
2023/07/04 09:20:58;;;;;;;7.18;4.20;;;;;;;25.90;52.65;99442.50;5030335;28;20053;-75
2023/07/04 09:23:24;;;;;;;7.43;4.65;;;;;;;25.92;52.67;99453.91;5030674;28;20025;-75
2023/07/04 09:25:55;;;;;;;6.00;4.20;;;;;;;25.93;52.59;99449.41;5030394;28;20030;-75
2023/07/04 09:28:22;;;;;;;6.28;4.30;;;;;;;25.94;52.43;99451.97;5030411;28;20037;-75
2023/07/04 09:30:47;;;;;;;5.70;3.80;;;;;;;25.95;52.36;99448.31;5030420;28;20042;-74
2023/07/04 09:33:14;;;;;;;4.95;3.65;;;;;;;25.97;52.51;99446.38;5030303;28;20521;-76
2023/07/04 09:35:42;;;;;;;6.82;4.32;;;;;;;25.98;52.30;99442.72;5030373;28;20458;-74
2023/07/04 09:38:07;;;;;;;7.00;4.15;;;;;;;25.99;52.25;99440.88;5030220;28;20124;-75
2023/07/04 09:40:42;;;;;;;7.82;4.70;;;;;;;25.99;52.59;99444.41;5029592;28;20127;-76
2023/07/04 09:43:09;;;;;;;6.75;4.28;;;;;;;26.00;52.54;99443.44;5032215;28;20044;-74
2023/07/04 09:45:35;;;;;;;5.95;3.88;;;;;;;26.04;52.37;99440.53;5052341;28;20036;-76
2023/07/04 09:48:04;;;;;;;5.30;3.60;;;;;;;26.04;52.64;99449.38;5051046;28;20400;-74
2023/07/04 09:50:32;;;;;;;5.93;4.00;;;;;;;26.06;52.19;99449.25;5052377;28;20473;-75
2023/07/04 09:53:09;;;;;;;6.70;3.88;;;;;;;26.08;52.30;99452.63;5052278;28;20025;-75
2023/07/04 09:55:37;;;;;;;6.30;4.30;;;;;;;26.09;52.48;99443.63;5051768;28;20075;-75
2023/07/04 09:58:23;;;;;;;5.47;3.75;;;;;;;26.11;52.27;99447.03;5052088;28;20441;-75
2023/07/04 10:01:14;;;;;;;5.40;3.40;;;;;;;26.11;52.60;99445.19;5052076;28;20124;-75
2023/07/04 10:03:40;;;;;;;6.78;3.83;;;;;;;26.13;52.13;99455.78;5050858;28;20036;-75
2023/07/04 10:06:08;;;;;;;7.13;4.35;;;;;;;26.14;52.21;99452.13;5051922;28;20029;-75
2023/07/04 10:08:55;;;;;;;5.65;4.07;;;;;;;26.15;52.36;99456.50;5051228;28;20013;-75
2023/07/04 10:11:30;;;;;;;6.25;3.95;;;;;;;26.17;52.33;99465.25;5051786;28;20037;-77
2023/07/04 10:14:02;;;;;;;5.68;3.85;;;;;;;26.17;52.14;99462.56;5052106;28;20035;-76
2023/07/04 10:16:28;;;;;;;6.25;3.65;;;;;;;26.18;52.29;99464.28;5051935;28;20037;-77
2023/07/04 10:19:12;;;;;;;6.70;4.20;;;;;;;26.19;52.19;99465.13;5052018;28;20017;-76
2023/07/04 10:21:50;;;;;;;7.30;4.25;;;;;;;26.20;52.13;99467.66;5051917;28;20610;-75
2023/07/04 10:24:18;;;;;;;5.80;3.97;;;;;;;26.21;52.15;99463.16;5051587;28;20029;-76
2023/07/04 10:26:50;;;;;;;5.28;3.70;;;;;;;26.20;52.35;99464.97;5051912;28;20032;-76
2023/07/04 10:29:18;;;;;;;5.72;3.78;;;;;;;26.22;52.51;99465.72;5051830;28;20111;-76
2023/07/04 10:31:45;;;;;;;5.78;3.72;;;;;;;26.23;52.51;99462.09;5051526;28;20033;-77
2023/07/04 10:34:15;;;;;;;6.28;3.80;;;;;;;26.25;52.31;99460.13;5051646;28;20440;-76
2023/07/04 10:36:43;;;;;;;6.15;4.13;;;;;;;26.26;52.38;99464.50;5051887;28;20037;-77
2023/07/04 10:39:13;;;;;;;5.20;3.72;;;;;;;26.29;52.18;99465.25;5051450;28;20389;-76
2023/07/04 10:41:52;;;;;;;5.65;3.75;;;;;;;26.29;52.15;99465.25;5051686;28;20025;-77
2023/07/04 10:44:27;;;;;;;5.95;4.10;;;;;;;26.32;52.57;99465.81;5031849;28;20103;-77
2023/07/04 10:46:58;;;;;;;5.80;3.60;;;;;;;26.32;52.46;99455.13;5031963;28;20025;-77
2023/07/04 10:49:42;;;;;;;5.38;3.58;;;;;;;26.34;52.06;99449.66;5031832;28;20410;-76
2023/07/04 10:52:14;;;;;;;5.88;3.78;;;;;;;26.35;52.43;99449.50;5031336;28;20596;-75
2023/07/04 10:54:40;;;;;;;6.07;3.83;;;;;;;26.36;52.32;99451.22;5031859;28;20375;-76
2023/07/04 10:57:12;;;;;;;7.03;4.28;;;;;;;26.37;51.95;99460.09;5043554;28;20557;-76
2023/07/04 10:59:44;;;;;;;5.72;4.05;;;;;;;26.39;52.34;99450.94;5051404;28;20045;-75
2023/07/04 11:02:37;;;;;;;5.90;3.83;;;;;;;26.40;52.09;99459.84;5051527;28;20020;-76
2023/07/04 11:05:11;;;;;;;5.80;3.70;;;;;;;26.42;52.05;99460.53;5051592;28;20056;-74
2023/07/04 11:07:40;;;;;;;5.95;3.80;;;;;;;26.42;52.27;99465.91;5051307;28;20025;-74
2023/07/04 11:10:09;;;;;;;5.43;3.85;;;;;;;26.44;52.34;99469.28;5051355;28;20128;-76
2023/07/04 11:12:37;;;;;;;7.70;4.20;;;;;;;26.44;52.06;99466.59;5051651;28;20104;-77
2023/07/04 11:15:27;;;;;;;6.65;3.67;;;;;;;26.46;52.04;99462.00;5051339;28;20095;-75
2023/07/04 11:17:54;;;;;;;5.95;3.92;;;;;;;26.47;51.85;99463.69;5051453;28;20033;-76
2023/07/04 11:20:30;;;;;;;5.72;3.95;;;;;;;26.47;52.25;99469.03;5053864;28;20094;-74
2023/07/04 11:23:00;;;;;;;;;;;;;;;26.48;52.16;99465.38;5055225;28;20025;-76
2023/07/04 11:25:26;;;;;;;6.13;3.80;;;;;;;26.49;51.92;99461.72;5054850;28;19916;-75
2023/07/04 11:28:28;;;;;;;6.63;4.00;;;;;;;26.49;52.16;99461.72;5054895;28;20032;-74
2023/07/04 11:31:30;;;;;;;6.18;4.13;;;;;;;26.51;52.39;99459.78;5054833;28;20473;-75
2023/07/04 11:33:56;;;;;;;6.55;4.20;;;;;;;26.50;52.00;99458.09;5055059;28;20060;-76
2023/07/04 11:36:36;;;;;;;5.93;4.00;;;;;;;26.52;51.85;99455.25;5054405;28;20081;-75
2023/07/04 11:39:05;;;;;;;6.45;3.90;;;;;;;26.52;52.13;99445.41;5054699;28;20531;-75
2023/07/04 11:41:38;;;;;;;5.93;3.92;;;;;;;26.52;52.38;99448.09;5052740;28;20373;-76